Time;durP1;ratioP1;P1;durP2;ratioP2;P2;SDS_P1;SDS_P2;PMS_P1;PMS_P2;Temp;Humidity;BMP_temperature;BMP_pressure;BME280_temperature;BME280_humidity;BME280_pressure;Samples;Min_cycle;Max_cycle;Signal;HPM_P1;HPM_P2
2021/07/20 05:17:10;;;;;;;11.00;3.98;;;;;;;40.32;27.55;99918.02;1827367;76;27794;-74
2021/07/20 05:19:45;;;;;;;6.20;3.70;;;;;;;40.68;26.64;99922.18;1799150;78;21382;-74
2021/07/20 05:22:22;;;;;;;7.85;3.67;;;;;;;41.08;26.02;99922.86;1812271;78;21294;-72
2021/07/20 05:24:56;;;;;;;10.35;4.12;;;;;;;41.36;26.01;99920.97;1800548;78;21321;-72
2021/07/20 05:27:36;;;;;;;14.80;4.70;;;;;;;41.79;25.69;99927.13;1812310;78;21335;-74
2021/07/20 05:30:11;;;;;;;13.50;4.22;;;;;;;42.20;25.27;99923.94;1810014;78;22139;-75
2021/07/20 05:32:46;;;;;;;8.18;3.22;;;;;;;42.61;24.72;99928.89;1810607;78;21172;-76
2021/07/20 05:35:20;;;;;;;6.70;2.95;;;;;;;42.96;23.43;99922.08;1809790;78;21349;-77
2021/07/20 05:37:54;;;;;;;11.40;2.83;;;;;;;43.36;22.41;99928.66;1806073;78;21305;-73
2021/07/20 05:40:27;;;;;;;7.78;3.00;;;;;;;43.60;21.94;99920.67;1805618;78;21207;-76
2021/07/20 05:43:01;;;;;;;11.93;3.33;;;;;;;43.85;21.40;99924.17;1809695;78;21298;-76
2021/07/20 05:45:39;;;;;;;8.43;3.12;;;;;;;44.05;21.33;99931.22;1808337;78;21294;-74
2021/07/20 05:48:17;;;;;;;8.18;2.60;;;;;;;44.24;20.60;99933.15;1807457;78;21287;-73
2021/07/20 05:50:53;;;;;;;6.83;2.80;;;;;;;44.47;20.30;99929.03;1809647;78;21172;-75
2021/07/20 05:53:33;;;;;;;8.20;2.75;;;;;;;44.74;20.18;99930.63;1773490;79;21274;-76
2021/07/20 05:56:04;;;;;;;7.50;2.85;;;;;;;45.00;19.64;99925.11;1803845;78;21884;-76
2021/07/20 05:58:38;;;;;;;13.43;3.20;;;;;;;45.25;19.41;99929.62;1782069;79;21125;-74
2021/07/20 06:01:11;;;;;;;5.70;2.77;;;;;;;45.49;18.93;99929.13;1805164;78;21294;-72
2021/07/20 06:03:46;;;;;;;9.55;2.87;;;;;;;45.80;18.59;99928.72;1809906;78;21323;-73
2021/07/20 06:06:19;;;;;;;9.53;3.10;;;;;;;46.09;18.18;99927.86;1807107;78;21184;-73
2021/07/20 06:08:54;;;;;;;8.45;3.27;;;;;;;46.35;17.96;99930.27;1809327;78;21227;-74
2021/07/20 06:11:27;;;;;;;6.85;2.83;;;;;;;46.55;17.65;99933.78;1809974;78;21159;-74
2021/07/20 06:14:00;;;;;;;8.38;2.95;;;;;;;46.74;17.66;99933.55;1812816;79;21315;-73
2021/07/20 06:16:33;;;;;;;7.65;2.77;;;;;;;46.90;17.46;99934.65;1804231;79;21160;-75
2021/07/20 06:19:06;;;;;;;7.12;2.70;;;;;;;47.10;17.19;99929.03;1795482;79;21322;-76
2021/07/20 06:21:40;;;;;;;8.93;3.05;;;;;;;47.27;16.98;99931.67;1790834;79;21319;-72
2021/07/20 06:24:15;;;;;;;11.88;3.10;;;;;;;47.36;16.95;99935.67;1791611;79;21181;-75
2021/07/20 06:26:48;;;;;;;8.28;2.90;;;;;;;47.48;16.74;99933.78;1789415;79;21322;-74
2021/07/20 06:29:21;;;;;;;15.03;3.42;;;;;;;47.65;16.66;99932.44;1790408;79;21165;-75
2021/07/20 06:31:54;;;;;;;6.97;2.65;;;;;;;47.93;16.26;99933.13;1794763;79;21342;-75
2021/07/20 06:34:27;;;;;;;14.60;3.20;;;;;;;48.19;16.22;99927.82;1786756;79;21835;-75
2021/07/20 07:36:26;;;;;;;8.48;3.45;;;;;;;51.50;13.49;99923.00;1772286;79;21114;-74
2021/07/20 07:39:05;;;;;;;13.28;4.12;;;;;;;51.81;13.10;99917.58;1773974;79;21946;-72
2021/07/20 07:41:39;;;;;;;9.95;3.95;;;;;;;51.95;12.92;99918.61;1777154;79;21295;-77
2021/07/20 07:44:13;;;;;;;10.90;3.85;;;;;;;51.97;13.10;99914.79;1778346;79;22014;-71
2021/07/20 07:46:46;;;;;;;15.18;5.00;;;;;;;51.98;13.07;99914.35;1784043;78;21308;-72
2021/07/20 07:49:20;;;;;;;17.30;5.00;;;;;;;51.95;13.24;99918.02;1779853;78;21365;-73
2021/07/20 07:51:53;;;;;;;14.33;4.40;;;;;;;51.62;13.43;99918.87;1783913;79;21224;-73
2021/07/20 07:54:26;;;;;;;11.18;4.65;;;;;;;51.24;13.73;99924.35;1781676;78;21368;-71
2021/07/20 07:57:00;;;;;;;15.60;3.95;;;;;;;50.83;14.19;99924.41;1785947;79;21168;-71
2021/07/20 07:59:34;;;;;;;11.68;4.25;;;;;;;50.58;14.45;99926.66;1787159;79;21283;-72
2021/07/20 08:02:09;;;;;;;12.05;4.00;;;;;;;50.59;14.53;99924.08;1784391;79;21176;-74
2021/07/20 08:04:43;;;;;;;6.40;3.80;;;;;;;50.50;14.58;99925.30;1779187;79;21264;-72
2021/07/20 08:07:18;;;;;;;7.47;3.58;;;;;;;50.44;14.59;99924.19;1751870;79;21283;-71
2021/07/20 08:09:54;;;;;;;9.70;3.87;;;;;;;50.42;14.59;99925.80;1750925;79;21891;-74
2021/07/20 08:12:28;;;;;;;7.33;3.60;;;;;;;50.42;14.44;99926.56;1756004;79;21321;-72
2021/07/20 08:15:02;;;;;;;11.10;3.62;;;;;;;50.49;14.69;99923.71;1772300;79;21182;-72
2021/07/20 08:17:35;;;;;;;10.88;3.77;;;;;;;50.45;14.46;99919.38;1783467;79;21785;-73
2021/07/20 08:20:09;;;;;;;9.63;3.70;;;;;;;50.42;14.41;99914.66;1783709;79;21359;-76
2021/07/20 08:22:42;;;;;;;11.48;4.20;;;;;;;50.39;14.61;99920.45;1783026;79;21256;-75
2021/07/20 08:25:39;;;;;;;8.80;4.05;;;;;;;50.35;14.61;99919.67;1782051;79;21739;-73
2021/07/20 08:28:16;;;;;;;8.00;3.50;;;;;;;50.24;14.57;99921.77;1778118;79;21300;-73
2021/07/20 08:30:50;;;;;;;18.65;5.03;;;;;;;50.19;14.74;99917.20;1776454;79;21804;-76
2021/07/20 08:33:29;;;;;;;9.20;3.60;;;;;;;50.10;14.56;99912.11;1749343;79;21173;-75
2021/07/20 08:36:04;;;;;;;13.48;3.98;;;;;;;49.90;15.14;99914.65;1783374;79;21244;-73
2021/07/20 08:38:37;;;;;;;9.55;3.90;;;;;;;49.87;15.06;99911.28;1790209;79;21217;-72
2021/07/20 08:41:21;;;;;;;8.20;4.22;;;;;;;49.96;15.15;99917.00;1785419;79;21219;-71
2021/07/20 08:44:01;;;;;;;14.47;4.08;;;;;;;49.99;14.76;99909.23;1789050;79;21247;-74
2021/07/20 08:46:45;;;;;;;12.85;3.77;;;;;;;49.69;14.70;99910.59;1786189;79;21165;-74
2021/07/20 08:50:01;;;;;;;11.95;4.22;;;;;;;49.28;15.19;99912.38;1782346;79;21145;-73
2021/07/20 08:52:42;;;;;;;10.68;3.62;;;;;;;49.03;15.69;99914.45;1790094;79;21284;-75
2021/07/20 08:55:23;;;;;;;;;;;;;;;48.93;16.10;99909.71;1797967;79;21327;-72
2021/07/20 08:58:07;;;;;;;8.48;4.17;;;;;;;48.75;15.83;99911.11;1767709;79;20227;-77
2021/07/20 09:00:45;;;;;;;10.55;4.37;;;;;;;48.52;16.03;99914.34;1790280;79;21161;-73
2021/07/20 09:03:37;;;;;;;10.93;4.25;;;;;;;48.27;16.47;99904.43;1770615;79;21252;-74
2021/07/20 09:06:13;;;;;;;13.00;4.17;;;;;;;48.11;16.75;99902.59;1787085;79;21621;-73
2021/07/20 09:09:04;;;;;;;12.90;4.50;;;;;;;48.12;16.74;99898.64;1784916;79;21200;-74
2021/07/20 09:11:49;;;;;;;8.95;4.72;;;;;;;48.07;16.61;99901.81;1788140;79;21222;-75
2021/07/20 09:14:38;;;;;;;9.10;4.67;;;;;;;47.68;17.17;99902.53;1784218;79;21295;-74
2021/07/20 09:17:33;;;;;;;10.75;5.33;;;;;;;47.34;17.33;99899.23;1796237;79;21157;-73
2021/07/20 09:20:19;;;;;;;15.13;5.03;;;;;;;47.11;17.44;99897.95;1716807;79;21279;-73
2021/07/20 09:23:16;;;;;;;12.37;5.03;;;;;;;46.98;17.94;99893.34;1793777;79;21263;-73
2021/07/20 09:26:04;;;;;;;10.03;4.85;;;;;;;46.68;18.15;99896.30;1789878;79;21243;-72
2021/07/20 09:28:59;;;;;;;6.00;4.58;;;;;;;46.68;18.44;99892.72;1798763;79;21660;-70
2021/07/20 09:31:58;;;;;;;11.60;5.08;;;;;;;46.71;18.25;99890.02;1778640;79;21276;-71
2021/07/20 09:35:00;;;;;;;11.20;4.87;;;;;;;46.59;18.47;99890.89;1796134;79;21287;-73
2021/07/20 09:38:17;;;;;;;7.17;5.30;;;;;;;46.31;18.61;99887.31;1793672;79;21299;-73
2021/07/20 09:41:18;;;;;;;8.88;5.10;;;;;;;46.07;18.69;99895.59;1752696;79;21728;-72
2021/07/20 09:44:14;;;;;;;17.37;5.20;;;;;;;45.92;18.94;99882.80;1734826;82;21731;-72
2021/07/20 09:47:19;;;;;;;10.82;5.12;;;;;;;45.90;18.94;99891.27;1724080;82;21323;-73
2021/07/20 09:50:11;;;;;;;8.58;5.33;;;;;;;45.75;18.84;99888.16;1782273;79;21732;-70
2021/07/20 09:53:00;;;;;;;11.12;5.55;;;;;;;45.53;18.85;99885.72;1790798;79;21791;-70
2021/07/20 09:56:14;;;;;;;7.75;5.42;;;;;;;45.31;19.17;99888.83;1787529;79;21926;-72
2021/07/20 09:59:01;;;;;;;;;;;;;;;45.05;19.41;99890.86;1796023;79;21339;-74
2021/07/20 10:01:42;;;;;;;15.75;5.78;;;;;;;44.65;19.88;99888.68;1786390;79;20427;-74
2021/07/20 10:04:54;;;;;;;7.67;5.80;;;;;;;44.17;20.64;99883.36;1780290;79;21303;-74
2021/07/20 10:07:49;;;;;;;;;;;;;;;43.94;20.62;99885.30;1789703;79;21251;-74
2021/07/20 10:10:42;;;;;;;;;;;;;;;43.78;21.17;99884.02;1795606;79;20311;-75
2021/07/20 10:13:28;;;;;;;39.10;8.00;;;;;;;43.64;20.83;99878.22;1784490;79;20767;-75
2021/07/20 10:16:24;;;;;;;10.93;5.60;;;;;;;43.52;20.44;99875.05;1797626;78;21299;-73
2021/07/20 10:19:09;;;;;;;11.22;6.35;;;;;;;43.41;20.93;99871.30;1782103;79;21330;-69
2021/07/20 10:21:44;;;;;;;7.60;5.55;;;;;;;43.15;20.94;99868.95;1783055;79;21324;-70
2021/07/20 10:24:21;;;;;;;13.62;6.08;;;;;;;42.91;21.07;99868.66;1786296;79;21747;-71
